Time;durP1;ratioP1;P1;durP2;ratioP2;P2;SDS_P1;SDS_P2;PMS_P1;PMS_P2;Temp;Humidity;BMP_temperature;BMP_pressure;BME280_temperature;BME280_humidity;BME280_pressure;Samples;Min_cycle;Max_cycle;Signal;HPM_P1;HPM_P2
2021/09/25 04:30:54;;;;;;;9.83;7.93;;;8.80;99.90;;;;;;6108472;23;20355;31
2021/09/25 04:33:20;;;;;;;13.57;8.03;;;8.80;99.90;;;;;;4988249;28;20457;-78
2021/09/25 04:35:46;;;;;;;11.63;7.70;;;8.80;99.90;;;;;;4975323;28;20464;-77
2021/09/25 04:38:11;;;;;;;12.93;8.57;;;8.80;99.90;;;;;;4972532;28;20186;-78
2021/09/25 04:40:37;;;;;;;10.30;7.87;;;8.70;99.90;;;;;;4975545;28;20175;-78
2021/09/25 04:43:03;;;;;;;10.33;8.20;;;8.70;99.90;;;;;;4993601;28;20187;-79
2021/09/25 04:45:29;;;;;;;9.27;8.27;;;8.70;99.90;;;;;;4993143;28;20244;-78
2021/09/25 04:47:54;;;;;;;10.47;8.43;;;8.70;99.90;;;;;;4992803;28;20829;-78
2021/09/25 04:50:20;;;;;;;13.93;7.43;;;8.70;99.90;;;;;;4992876;28;20183;-78
2021/09/25 04:52:46;;;;;;;10.20;8.60;;;8.70;99.90;;;;;;4992591;28;20206;-79
2021/09/25 04:55:12;;;;;;;11.23;8.90;;;8.60;99.90;;;;;;4992733;28;20674;-78
2021/09/25 04:57:37;;;;;;;15.40;9.63;;;8.70;99.90;;;;;;4992942;28;20453;-78
2021/09/25 05:00:05;;;;;;;11.70;8.77;;;8.60;99.90;;;;;;4992184;28;20189;-78
2021/09/25 05:02:31;;;;;;;15.50;8.70;;;8.60;99.90;;;;;;4991997;28;20200;-78
2021/09/25 05:04:57;;;;;;;9.47;7.20;;;8.60;99.90;;;;;;4992495;28;20430;-78
2021/09/25 05:07:22;;;;;;;13.50;8.87;;;8.60;99.90;;;;;;4992618;28;20189;-78
2021/09/25 05:09:48;;;;;;;10.00;8.50;;;8.60;99.90;;;;;;4992324;28;20559;-78
2021/09/25 05:12:13;;;;;;;9.97;8.73;;;8.60;99.90;;;;;;4992151;28;20570;-78
2021/09/25 05:14:40;;;;;;;12.67;9.47;;;8.60;99.90;;;;;;4991446;28;20194;-78
2021/09/25 05:17:06;;;;;;;11.47;8.20;;;8.50;99.90;;;;;;4992134;28;20215;-78
2021/09/25 05:19:32;;;;;;;13.20;8.20;;;8.50;99.90;;;;;;4992373;28;20420;-78
2021/09/25 05:21:57;;;;;;;8.30;7.43;;;8.50;99.90;;;;;;4992012;28;20436;-78
2021/09/25 05:24:23;;;;;;;10.03;7.57;;;8.50;99.90;;;;;;4992278;28;20647;-78
2021/09/25 05:26:50;;;;;;;13.90;7.80;;;8.50;99.90;;;;;;4992419;28;20238;-79
2021/09/25 05:29:16;;;;;;;10.70;8.17;;;8.60;99.90;;;;;;4992187;28;20707;-79
2021/09/25 05:31:43;;;;;;;11.00;7.13;;;8.60;99.90;;;;;;4992145;28;20968;-78
2021/09/25 05:34:08;;;;;;;12.60;8.13;;;8.60;99.90;;;;;;4991854;28;20430;-78
2021/09/25 05:36:34;;;;;;;11.17;8.20;;;8.60;99.90;;;;;;4992291;28;20461;-78
2021/09/25 05:38:59;;;;;;;8.50;7.60;;;8.70;99.90;;;;;;4992152;28;20174;-78
2021/09/25 05:41:25;;;;;;;10.50;8.60;;;8.70;99.90;;;;;;4992181;28;20290;-78
2021/09/25 05:43:53;;;;;;;12.13;8.40;;;8.70;99.90;;;;;;4993810;28;20226;-78
2021/09/25 05:46:19;;;;;;;11.47;8.17;;;8.80;99.90;;;;;;4981239;28;20194;-78
2021/09/25 05:48:47;;;;;;;17.03;7.77;;;9.00;99.90;;;;;;4998552;28;20845;-78
2021/09/25 05:51:13;;;;;;;8.70;7.20;;;9.90;99.90;;;;;;4998769;28;20433;-79
2021/09/25 05:53:38;;;;;;;9.57;7.13;;;11.40;99.90;;;;;;4998769;28;20445;-79
2021/09/25 05:56:04;;;;;;;7.70;6.90;;;13.20;99.90;;;;;;4999378;28;20226;-79
2021/09/25 05:58:30;;;;;;;7.93;5.60;;;14.80;99.90;;;;;;4999303;28;20175;-80
2021/09/25 06:00:55;;;;;;;7.73;6.97;;;16.20;99.90;;;;;;4997598;28;20199;-77
2021/09/25 06:03:21;;;;;;;7.77;6.97;;;17.10;99.90;;;;;;4998160;28;20168;-77
2021/09/25 06:05:47;;;;;;;8.33;6.13;;;17.50;99.90;;;;;;4998487;28;20257;-77
2021/09/25 06:08:12;;;;;;;6.80;6.10;;;18.30;99.90;;;;;;4998654;28;20269;-77
2021/09/25 06:10:38;;;;;;;8.10;7.13;;;19.10;99.90;;;;;;4999399;28;20175;-77
2021/09/25 06:13:06;;;;;;;7.53;6.83;;;19.30;99.90;;;;;;4998063;28;20193;-77
2021/09/25 06:15:32;;;;;;;12.00;7.20;;;19.60;99.90;;;;;;4998786;28;20635;-77
2021/09/25 06:17:59;;;;;;;7.20;6.50;;;20.10;99.90;;;;;;4998399;28;20501;-77
2021/09/25 06:20:24;;;;;;;7.50;6.67;;;20.50;99.90;;;;;;4998808;28;20171;-78
2021/09/25 06:22:50;;;;;;;8.53;6.80;;;20.90;99.90;;;;;;4998453;28;20410;-78
2021/09/25 06:25:15;;;;;;;7.97;6.90;;;21.20;99.90;;;;;;4998316;28;20510;-77
2021/09/25 06:27:41;;;;;;;9.20;6.63;;;22.10;99.90;;;;;;4998362;28;20182;-77
2021/09/25 06:30:08;;;;;;;7.73;7.03;;;22.50;99.90;;;;;;4997938;28;20183;-77
2021/09/25 06:32:34;;;;;;;7.80;6.97;;;22.60;99.90;;;;;;4997758;28;20226;-78
2021/09/25 06:34:59;;;;;;;7.70;6.43;;;23.50;99.90;;;;;;4998017;28;20453;-78
2021/09/25 06:37:26;;;;;;;8.43;7.63;;;23.50;99.90;;;;;;4998266;28;20202;-78
2021/09/25 06:39:51;;;;;;;9.67;6.83;;;23.40;99.90;;;;;;4998037;28;20171;-78
2021/09/25 06:42:17;;;;;;;7.60;6.83;;;23.60;99.90;;;;;;4997983;28;20504;-77
2021/09/25 06:44:42;;;;;;;7.63;6.83;;;24.10;99.90;;;;;;4998149;28;20175;-77
2021/09/25 06:47:08;;;;;;;8.00;7.13;;;24.40;99.90;;;;;;4997935;28;20192;-78
2021/09/25 06:49:33;;;;;;;7.50;6.80;;;24.50;99.90;;;;;;4998132;28;20534;-77
2021/09/25 06:51:59;;;;;;;9.23;7.77;;;24.40;99.90;;;;;;4997889;28;20203;-78
2021/09/25 06:54:24;;;;;;;8.20;6.93;;;25.00;99.90;;;;;;4997751;28;20636;-78
2021/09/25 06:56:50;;;;;;;9.10;7.00;;;24.90;99.90;;;;;;4995301;28;20285;-76
2021/09/25 06:59:15;;;;;;;8.97;8.07;;;25.10;99.90;;;;;;4994743;28;20172;-77
2021/09/25 07:01:41;;;;;;;8.40;7.70;;;24.60;99.90;;;;;;4994882;28;20199;-77
2021/09/25 07:04:06;;;;;;;7.67;7.03;;;24.60;99.90;;;;;;4994426;28;20179;-77
2021/09/25 07:06:34;;;;;;;9.23;7.23;;;23.70;99.90;;;;;;4977280;28;20179;-77
2021/09/25 07:08:59;;;;;;;10.40;7.77;;;23.90;99.90;;;;;;4994343;28;20645;-77
2021/09/25 07:11:25;;;;;;;7.93;7.13;;;23.70;99.90;;;;;;4994585;28;20481;-77
2021/09/25 07:13:50;;;;;;;8.77;7.37;;;23.00;99.90;;;;;;4994260;28;20202;-76
2021/09/25 07:16:16;;;;;;;9.57;8.53;;;22.40;99.90;;;;;;4994430;28;20580;-77
2021/09/25 07:18:42;;;;;;;9.10;8.20;;;21.90;99.90;;;;;;4977168;28;20648;-77
2021/09/25 07:21:07;;;;;;;9.47;8.20;;;21.40;99.90;;;;;;4994275;28;20250;-77
2021/09/25 07:23:35;;;;;;;10.37;8.23;;;21.30;99.90;;;;;;4994088;28;20207;-77
2021/09/25 07:26:00;;;;;;;9.60;7.70;;;21.30;99.90;;;;;;4994240;28;20175;-76
2021/09/25 07:28:26;;;;;;;9.37;8.47;;;21.40;99.90;;;;;;4994328;28;20415;-77
2021/09/25 07:30:51;;;;;;;9.10;7.53;;;21.20;99.90;;;;;;4992876;28;20207;-76
2021/09/25 07:33:17;;;;;;;13.93;8.77;;;21.20;99.90;;;;;;4994111;28;20569;-77
2021/09/25 07:35:44;;;;;;;11.13;7.93;;;21.40;99.90;;;;;;4994305;28;20188;-76
2021/09/25 07:38:10;;;;;;;8.63;7.80;;;21.30;99.90;;;;;;4994487;28;20207;-77
2021/09/25 07:40:36;;;;;;;7.83;7.03;;;21.40;99.90;;;;;;4994184;28;20470;-76
2021/09/25 07:43:03;;;;;;;12.53;8.33;;;21.40;99.90;;;;;;4993554;28;20418;-76
2021/09/25 07:45:28;;;;;;;10.87;7.93;;;21.40;99.90;;;;;;4994201;28;20540;-77
2021/09/25 07:47:54;;;;;;;8.00;7.10;;;21.40;99.90;;;;;;4993650;28;20407;-76
2021/09/25 07:50:20;;;;;;;8.17;6.83;;;21.40;99.90;;;;;;4993983;28;20174;-77
2021/09/25 07:52:46;;;;;;;13.10;8.80;;;21.50;99.90;;;;;;4993706;28;20434;-77
2021/09/25 07:55:13;;;;;;;14.40;8.07;;;21.70;99.90;;;;;;4994063;28;20210;-77
2021/09/25 07:57:40;;;;;;;9.13;7.67;;;21.60;99.90;;;;;;4993899;28;20556;-77
2021/09/25 08:00:09;;;;;;;7.70;6.90;;;21.90;99.90;;;;;;4993611;28;20407;-76
2021/09/25 08:02:35;;;;;;;18.13;8.77;;;22.00;99.90;;;;;;4993360;28;20469;-77
2021/09/25 08:05:01;;;;;;;12.80;8.23;;;22.30;99.90;;;;;;4993606;28;20406;-77
2021/09/25 08:07:27;;;;;;;7.90;6.70;;;22.10;99.90;;;;;;4993772;28;20172;-77
2021/09/25 08:09:52;;;;;;;7.57;6.90;;;22.30;99.90;;;;;;4993679;28;20413;-77
2021/09/25 08:12:18;;;;;;;10.33;8.00;;;22.30;99.90;;;;;;4993500;28;20652;-77
2021/09/25 08:14:44;;;;;;;8.87;7.30;;;22.40;99.90;;;;;;4976107;28;20238;-76
2021/09/25 08:17:09;;;;;;;12.53;8.70;;;22.40;99.90;;;;;;4992396;28;20211;-77
2021/09/25 08:19:35;;;;;;;10.00;7.37;;;22.40;99.90;;;;;;4993530;28;20709;-77
2021/09/25 08:22:00;;;;;;;7.70;6.90;;;22.40;99.90;;;;;;4993601;28;20191;-77
2021/09/25 08:24:25;;;;;;;7.83;7.03;;;22.70;99.90;;;;;;4993127;28;20164;-76
2021/09/25 08:26:51;;;;;;;10.03;7.30;;;22.60;99.90;;;;;;4993363;28;20318;-77
2021/09/25 08:29:17;;;;;;;10.90;7.67;;;22.80;99.90;;;;;;4993141;28;20575;-77
2021/09/25 08:31:42;;;;;;;7.90;7.20;;;23.20;99.90;;;;;;4993014;28;20210;-77
2021/09/25 08:34:08;;;;;;;9.07;7.00;;;23.50;99.90;;;;;;4992683;28;20738;-77
2021/09/25 08:36:33;;;;;;;8.90;7.07;;;23.50;99.90;;;;;;4993135;28;20207;-77
2021/09/25 08:38:59;;;;;;;10.83;6.90;;;23.50;99.90;;;;;;4993079;28;20180;-76
2021/09/25 08:41:24;;;;;;;10.50;7.00;;;23.90;99.90;;;;;;4993141;28;20270;-78
2021/09/25 08:43:51;;;;;;;8.00;7.13;;;24.00;99.90;;;;;;4992166;28;20179;-77
2021/09/25 08:46:17;;;;;;;8.00;7.10;;;24.10;99.90;;;;;;4994461;28;20640;-77
2021/09/25 08:48:42;;;;;;;10.03;6.97;;;24.20;99.90;;;;;;4994084;28;20414;-78
2021/09/25 08:51:09;;;;;;;8.60;6.87;;;24.20;99.90;;;;;;4993362;28;20195;-77
2021/09/25 08:53:35;;;;;;;13.93;7.13;;;24.20;99.90;;;;;;4975853;28;20174;-77
2021/09/25 08:56:01;;;;;;;8.40;7.17;;;24.40;99.90;;;;;;4992585;28;20446;-77
2021/09/25 08:58:26;;;;;;;8.23;6.50;;;24.90;99.90;;;;;;4992682;28;20181;-77
2021/09/25 09:00:54;;;;;;;6.67;6.07;;;25.10;99.90;;;;;;4992413;28;20195;-77
2021/09/25 09:03:22;;;;;;;10.43;6.10;;;24.90;99.90;;;;;;4992475;28;20175;-76
2021/09/25 09:05:48;;;;;;;11.10;6.07;;;24.80;99.90;;;;;;4991233;28;20523;-77
2021/09/25 09:08:14;;;;;;;11.20;6.70;;;24.70;99.90;;;;;;4992518;28;20419;-76
2021/09/25 09:10:40;;;;;;;9.27;5.50;;;24.80;99.90;;;;;;4992545;28;20801;-77
2021/09/25 09:13:06;;;;;;;7.23;6.30;;;25.10;99.90;;;;;;4992096;28;20192;-77
2021/09/25 09:15:38;;;;;;;6.90;5.83;;;25.20;99.90;;;;;;4992577;28;20179;-78
2021/09/25 09:18:11;;;;;;;7.40;6.60;;;25.50;99.90;;;;;;4991959;28;20493;-78
2021/09/25 09:20:37;;;;;;;7.20;5.77;;;25.80;99.90;;;;;;4992012;28;20437;-77
2021/09/25 09:23:18;;;;;;;9.60;6.97;;;26.10;99.90;;;;;;4991947;28;20406;-77
2021/09/25 09:25:44;;;;;;;6.40;5.80;;;26.20;99.90;;;;;;4992420;28;20422;-76
2021/09/25 09:28:11;;;;;;;11.43;6.30;;;26.30;99.90;;;;;;4992053;28;20419;-77
2021/09/25 09:30:46;;;;;;;11.67;6.03;;;26.60;99.90;;;;;;4992179;28;20425;-77
2021/09/25 09:33:25;;;;;;;5.23;4.83;;;26.80;99.90;;;;;;4991850;28;20418;-77
2021/09/25 09:35:51;;;;;;;5.63;5.07;;;26.80;99.90;;;;;;4992115;28;20454;-77
2021/09/25 09:38:23;;;;;;;5.50;4.90;;;26.70;99.90;;;;;;4991981;28;20903;-77
2021/09/25 09:40:55;;;;;;;11.77;6.40;;;26.80;99.90;;;;;;4992055;28;20688;-77
2021/09/25 09:43:21;;;;;;;6.93;5.10;;;26.90;99.90;;;;;;4991724;28;20445;-77
2021/09/25 09:45:46;;;;;;;13.50;6.27;;;26.80;99.90;;;;;;4992175;28;20427;-77
2021/09/25 09:48:12;;;;;;;6.70;5.13;;;27.20;99.90;;;;;;4991855;28;20552;-77
2021/09/25 09:50:42;;;;;;;9.50;6.43;;;27.60;99.90;;;;;;4992069;28;20191;-77
2021/09/25 09:53:14;;;;;;;7.50;5.40;;;27.60;99.90;;;;;;4991746;28;20229;-78
2021/09/25 09:55:40;;;;;;;13.30;6.77;;;27.70;99.90;;;;;;4991992;28;20461;-77
2021/09/25 09:58:07;;;;;;;6.57;5.37;;;27.50;99.90;;;;;;4991630;28;20419;-77
2021/09/25 10:00:34;;;;;;;9.03;5.70;;;27.10;99.90;;;;;;4991910;28;20234;-76
2021/09/25 10:03:01;;;;;;;9.37;5.50;;;27.40;99.90;;;;;;4991631;28;20422;-77
2021/09/25 10:05:27;;;;;;;8.93;5.30;;;27.20;99.90;;;;;;4991877;28;20418;-77
2021/09/25 10:07:53;;;;;;;8.87;5.40;;;27.20;99.90;;;;;;4991885;28;20488;-77
2021/09/25 10:10:23;;;;;;;5.83;5.03;;;27.10;99.90;;;;;;4991874;28;20406;-77
2021/09/25 10:12:49;;;;;;;5.73;5.13;;;27.10;99.90;;;;;;4991440;28;20488;-77
2021/09/25 10:15:15;;;;;;;7.13;4.97;;;27.10;99.90;;;;;;4991832;28;20509;-77
2021/09/25 10:17:42;;;;;;;6.77;6.07;;;27.30;99.90;;;;;;4991843;28;20207;-78
2021/09/25 10:20:09;;;;;;;5.17;4.77;;;27.10;99.90;;;;;;4991599;28;20451;-76
2021/09/25 10:22:36;;;;;;;12.07;5.50;;;27.40;99.90;;;;;;4991695;28;20447;-77
2021/09/25 10:25:08;;;;;;;8.27;5.33;;;27.50;99.90;;;;;;4991666;28;20442;-77
2021/09/25 10:27:37;;;;;;;9.50;5.87;;;27.70;99.90;;;;;;4974528;28;20434;-77
2021/09/25 10:30:06;;;;;;;5.80;5.40;;;27.50;99.90;;;;;;4992307;28;20425;-77
2021/09/25 10:32:36;;;;;;;8.50;5.10;;;27.60;99.90;;;;;;4993992;28;20830;-78
2021/09/25 10:35:03;;;;;;;6.30;5.70;;;28.10;99.90;;;;;;4995649;28;20808;-78
2021/09/25 10:37:38;;;;;;;8.13;5.93;;;28.20;99.90;;;;;;4995445;28;20917;-77
2021/09/25 10:40:05;;;;;;;7.50;4.80;;;28.10;99.90;;;;;;4995226;28;20776;-77
2021/09/25 10:42:57;;;;;;;5.80;4.40;;;28.00;99.90;;;;;;4994924;28;20422;-77
2021/09/25 10:45:28;;;;;;;8.00;5.67;;;27.90;99.90;;;;;;4995479;28;20895;-77
2021/09/25 10:48:22;;;;;;;7.00;5.43;;;27.60;99.90;;;;;;4994996;28;20441;-77
2021/09/25 10:50:51;;;;;;;6.97;4.90;;;27.70;99.90;;;;;;4995114;28;20749;-76
2021/09/25 10:53:19;;;;;;;7.30;5.30;;;27.60;99.90;;;;;;4994665;28;20900;-77
2021/09/25 10:55:47;;;;;;;5.97;4.80;;;27.70;99.90;;;;;;4977603;28;20446;-78
2021/09/25 10:58:25;;;;;;;7.33;5.23;;;27.60;99.90;;;;;;4994875;28;20441;-76
2021/09/25 11:01:14;;;;;;;7.60;5.47;;;27.80;99.90;;;;;;4994805;28;20433;-76
2021/09/25 11:03:48;;;;;;;7.40;4.33;;;27.70;99.90;;;;;;4994548;28;20411;-78
2021/09/25 11:06:24;;;;;;;5.97;4.67;;;27.40;99.90;;;;;;4994785;28;20406;-78
2021/09/25 11:08:58;;;;;;;5.80;5.30;;;27.80;99.90;;;;;;4994602;28;20831;-77
2021/09/25 11:11:51;;;;;;;5.77;4.80;;;27.70;99.90;;;;;;4994736;28;20947;-77
2021/09/25 11:14:40;;;;;;;8.83;4.80;;;27.40;99.90;;;;;;4994352;28;20418;-78
2021/09/25 11:17:05;;;;;;;6.00;4.80;;;27.50;99.90;;;;;;4994568;28;20449;-77
2021/09/25 11:19:34;;;;;;;5.63;5.13;;;27.40;99.90;;;;;;4993378;28;20428;-77
2021/09/25 11:22:12;;;;;;;7.13;4.73;;;27.30;99.90;;;;;;4994289;28;20222;-77
2021/09/25 11:24:47;;;;;;;9.67;5.67;;;27.30;99.90;;;;;;4994357;28;20775;-77
2021/09/25 11:27:22;;;;;;;5.90;5.30;;;27.40;99.90;;;;;;4994478;28;20422;-77
2021/09/25 11:29:54;;;;;;;7.07;4.30;;;27.40;99.90;;;;;;4994331;28;20401;-77
2021/09/25 11:32:47;;;;;;;5.87;4.80;;;27.60;99.90;;;;;;4993008;28;20458;-78
2021/09/25 11:35:27;;;;;;;5.33;4.57;;;27.40;99.90;;;;;;4987923;28;20525;-77
2021/09/25 11:38:08;;;;;;;5.40;4.90;;;27.50;99.90;;;;;;4994168;28;20593;-77
2021/09/25 11:40:38;;;;;;;4.70;4.40;;;27.70;99.90;;;;;;4994125;28;20402;-77
2021/09/25 11:43:12;;;;;;;7.73;5.50;;;27.60;99.90;;;;;;4992905;28;20407;-78
2021/09/25 11:45:42;;;;;;;4.83;4.27;;;27.30;99.90;;;;;;4994229;28;20403;-78
2021/09/25 11:48:09;;;;;;;6.20;4.63;;;27.20;99.90;;;;;;4994077;28;20446;-77
2021/09/25 11:50:38;;;;;;;5.00;4.60;;;27.30;99.90;;;;;;4993892;28;20419;-77
2021/09/25 11:53:06;;;;;;;7.33;4.20;;;27.20;99.90;;;;;;4993676;28;20954;-78
2021/09/25 11:55:33;;;;;;;6.47;4.73;;;27.00;99.90;;;;;;4993853;28;20411;-77
2021/09/25 11:58:02;;;;;;;8.13;5.10;;;26.90;99.90;;;;;;4993960;28;20446;-77
2021/09/25 12:00:40;;;;;;;5.10;4.60;;;26.70;99.90;;;;;;4994213;28;20415;-77
2021/09/25 12:03:08;;;;;;;5.90;4.90;;;26.60;99.90;;;;;;4993512;28;20517;-77
2021/09/25 12:05:47;;;;;;;5.40;4.90;;;26.30;99.90;;;;;;4976231;28;20507;-76
2021/09/25 12:08:24;;;;;;;9.10;5.13;;;26.30;99.90;;;;;;4993738;28;20500;-76
2021/09/25 12:10:53;;;;;;;9.03;4.47;;;26.20;99.90;;;;;;4993618;28;20430;-77
2021/09/25 12:13:31;;;;;;;4.27;3.87;;;26.20;99.90;;;;;;4993206;28;20410;-77
2021/09/25 12:16:05;;;;;;;7.90;5.30;;;26.20;99.90;;;;;;4993429;28;20501;-77
2021/09/25 12:18:33;;;;;;;6.17;3.97;;;26.30;99.90;;;;;;4992073;28;21093;-77
2021/09/25 12:21:04;;;;;;;6.37;5.70;;;26.30;99.90;;;;;;4993260;28;20442;-77
2021/09/25 12:23:31;;;;;;;5.10;4.70;;;26.20;99.90;;;;;;4992903;28;20415;-76
2021/09/25 12:25:58;;;;;;;9.27;4.90;;;26.20;99.90;;;;;;4993151;28;20450;-76
2021/09/25 12:28:33;;;;;;;8.13;4.27;;;26.00;99.90;;;;;;4993190;28;20893;-77
2021/09/25 12:31:02;;;;;;;5.33;4.50;;;25.90;99.90;;;;;;4992858;28;20815;-76
2021/09/25 12:33:28;;;;;;;4.77;4.33;;;26.10;99.90;;;;;;4991680;28;20438;-76
2021/09/25 12:36:10;;;;;;;7.30;4.90;;;26.10;99.90;;;;;;4992888;28;20446;-76
2021/09/25 12:38:43;;;;;;;5.47;4.03;;;26.10;99.90;;;;;;4992871;28;20168;-77
2021/09/25 12:41:11;;;;;;;5.23;4.73;;;26.20;99.90;;;;;;4992838;28;20445;-77
2021/09/25 12:43:41;;;;;;;4.27;3.97;;;26.40;99.90;;;;;;4992718;28;20415;-77
2021/09/25 12:46:24;;;;;;;4.67;4.20;;;26.40;99.90;;;;;;4992821;28;20509;-77
2021/09/25 12:49:22;;;;;;;4.93;4.07;;;26.50;99.90;;;;;;4992820;28;20485;-77
2021/09/25 12:51:52;;;;;;;11.80;5.50;;;26.40;99.90;;;;;;4992796;28;20426;-77
2021/09/25 12:54:42;;;;;;;4.80;4.30;;;26.30;99.90;;;;;;4992219;28;20842;-77
2021/09/25 12:57:16;;;;;;;6.13;4.70;;;26.20;99.90;;;;;;4984976;28;20508;-78
2021/09/25 12:59:43;;;;;;;8.40;6.47;;;26.00;99.90;;;;;;4992605;28;20465;-77
2021/09/25 13:02:18;;;;;;;4.30;3.90;;;26.00;99.90;;;;;;4992441;28;20423;-77
2021/09/25 13:04:46;;;;;;;4.60;3.93;;;25.90;99.90;;;;;;4992456;28;20978;-77
2021/09/25 13:07:13;;;;;;;6.30;3.80;;;25.80;99.90;;;;;;4992581;28;20458;-77
2021/09/25 13:09:47;;;;;;;8.47;4.07;;;25.80;99.90;;;;;;4992445;28;20415;-77
2021/09/25 13:12:26;;;;;;;4.50;4.17;;;25.80;99.90;;;;;;4992388;28;20439;-77
2021/09/25 13:15:04;;;;;;;5.40;3.03;;;25.90;99.90;;;;;;4992301;28;20497;-77
2021/09/25 13:17:31;;;;;;;3.90;3.57;;;25.90;99.90;;;;;;4992556;28;20453;-78
2021/09/25 13:19:57;;;;;;;5.07;4.60;;;25.80;99.90;;;;;;4992149;28;20473;-76
2021/09/25 13:22:23;;;;;;;4.30;3.90;;;25.80;99.90;;;;;;4991077;28;20465;-77
2021/09/25 13:24:48;;;;;;;4.40;4.00;;;25.70;99.90;;;;;;4992080;28;20603;-77
2021/09/25 13:27:14;;;;;;;4.70;4.27;;;25.60;99.90;;;;;;4991094;28;20179;-77
2021/09/25 13:29:40;;;;;;;4.27;3.90;;;25.60;99.90;;;;;;4992192;28;20551;-77
2021/09/25 13:32:07;;;;;;;4.73;4.33;;;25.60;99.90;;;;;;4991112;28;20688;-77
2021/09/25 13:34:33;;;;;;;3.80;3.50;;;25.60;99.90;;;;;;4990638;28;20800;-76
2021/09/25 13:36:59;;;;;;;4.50;3.83;;;25.70;99.90;;;;;;4991602;28;20454;-78
2021/09/25 13:39:26;;;;;;;4.70;4.30;;;25.60;99.90;;;;;;4992089;28;20175;-77
2021/09/25 13:41:53;;;;;;;8.47;4.00;;;25.60;99.90;;;;;;4991879;28;20512;-77
2021/09/25 13:44:18;;;;;;;4.73;4.27;;;25.60;99.90;;;;;;4991795;28;20421;-77
2021/09/25 13:46:44;;;;;;;4.27;3.90;;;25.50;99.90;;;;;;4991913;28;20423;-77
2021/09/25 13:49:09;;;;;;;3.47;3.27;;;25.60;99.90;;;;;;4992006;28;20183;-77
2021/09/25 13:51:36;;;;;;;5.60;3.90;;;25.70;99.90;;;;;;4991229;28;20204;-77
2021/09/25 13:54:02;;;;;;;3.70;3.40;;;25.60;99.90;;;;;;4991048;28;20235;-76
2021/09/25 13:56:28;;;;;;;3.53;3.23;;;25.70;99.90;;;;;;4991943;28;20454;-78
2021/09/25 13:58:53;;;;;;;4.97;3.53;;;25.90;99.90;;;;;;4991634;28;20922;-77
2021/09/25 14:01:21;;;;;;;3.80;3.60;;;25.90;99.90;;;;;;4992057;28;20195;-77
2021/09/25 14:03:47;;;;;;;3.83;3.40;;;25.90;99.90;;;;;;4991555;28;20655;-77
2021/09/25 14:06:13;;;;;;;6.40;3.23;;;26.00;99.90;;;;;;4994561;28;20414;-77
2021/09/25 14:08:39;;;;;;;4.03;3.63;;;26.20;99.90;;;;;;4996022;28;20571;-77
2021/09/25 14:11:05;;;;;;;3.10;2.90;;;26.20;99.90;;;;;;4995710;28;20442;-76
2021/09/25 14:13:31;;;;;;;6.73;3.33;;;26.30;99.90;;;;;;4995549;28;20418;-77
2021/09/25 14:15:56;;;;;;;3.83;3.00;;;26.20;99.90;;;;;;4994246;28;20199;-76
2021/09/25 14:18:21;;;;;;;3.47;3.20;;;26.30;99.90;;;;;;4995737;28;20180;-77
2021/09/25 14:20:47;;;;;;;3.27;2.97;;;26.20;99.90;;;;;;4995645;28;20595;-77
2021/09/25 14:23:13;;;;;;;4.50;4.10;;;26.30;99.90;;;;;;4995043;28;20229;-77
2021/09/25 14:25:41;;;;;;;4.00;3.20;;;26.20;99.90;;;;;;4994083;28;20175;-77
2021/09/25 14:28:08;;;;;;;3.80;3.50;;;26.20;99.90;;;;;;4995157;28;20558;-77
2021/09/25 14:30:35;;;;;;;4.10;3.77;;;26.20;99.90;;;;;;4995448;28;20450;-78
2021/09/25 14:33:02;;;;;;;3.63;3.40;;;26.20;99.90;;;;;;4995259;28;20423;-78
2021/09/25 14:35:28;;;;;;;4.50;4.10;;;26.10;99.90;;;;;;4995401;28;20468;-77
2021/09/25 14:37:53;;;;;;;3.70;3.50;;;26.10;99.90;;;;;;4996316;28;20819;-77
2021/09/25 14:40:19;;;;;;;5.17;3.90;;;26.20;99.90;;;;;;4995263;28;20230;-77
2021/09/25 14:42:45;;;;;;;3.40;3.10;;;26.10;99.90;;;;;;4995342;28;20191;-76
2021/09/25 14:45:12;;;;;;;3.80;3.50;;;26.10;99.90;;;;;;4995163;28;20163;-75
2021/09/25 14:47:38;;;;;;;3.00;2.80;;;26.00;99.90;;;;;;4995361;28;20418;-76
2021/09/25 14:50:05;;;;;;;3.60;3.30;;;26.00;99.90;;;;;;4994878;28;20407;-78
2021/09/25 14:52:31;;;;;;;4.10;3.40;;;26.00;99.90;;;;;;4993707;28;20445;-77
2021/09/25 14:54:56;;;;;;;3.10;2.90;;;26.00;99.90;;;;;;4994749;28;20402;-76
2021/09/25 14:57:22;;;;;;;3.77;2.50;;;25.80;99.90;;;;;;4994954;28;20582;-77
2021/09/25 14:59:48;;;;;;;3.80;3.27;;;25.80;99.90;;;;;;4995113;28;20186;-77
2021/09/25 15:02:16;;;;;;;3.77;3.47;;;25.80;99.90;;;;;;4995054;28;20187;-76
2021/09/25 15:04:41;;;;;;;3.40;3.20;;;25.80;99.90;;;;;;4994924;28;20190;-76
2021/09/25 15:07:07;;;;;;;3.73;3.40;;;25.80;99.90;;;;;;4994854;28;20422;-77
2021/09/25 15:09:32;;;;;;;4.50;3.40;;;25.70;99.90;;;;;;4994754;28;20171;-76
2021/09/25 15:11:59;;;;;;;8.33;3.70;;;25.70;99.90;;;;;;4993314;28;20226;-77
2021/09/25 15:14:25;;;;;;;4.63;3.80;;;25.60;99.90;;;;;;4994468;28;20175;-77
2021/09/25 15:16:50;;;;;;;3.70;3.40;;;25.60;99.90;;;;;;4992056;28;20454;-76
2021/09/25 15:19:17;;;;;;;3.73;3.43;;;25.50;99.90;;;;;;4994246;28;20179;-77
2021/09/25 15:21:43;;;;;;;8.03;4.30;;;25.40;99.90;;;;;;4994579;28;20195;-76
2021/09/25 15:24:08;;;;;;;6.67;6.00;;;25.40;99.90;;;;;;4993895;28;20409;-77
2021/09/25 15:26:34;;;;;;;5.87;5.33;;;25.40;99.90;;;;;;4994521;28;20645;-77
2021/09/25 15:28:59;;;;;;;5.97;5.47;;;25.30;99.90;;;;;;4994245;28;20175;-77
2021/09/25 15:31:25;;;;;;;5.97;5.47;;;25.20;99.90;;;;;;4994148;28;20211;-77
2021/09/25 15:33:51;;;;;;;6.23;5.37;;;25.20;99.90;;;;;;4994052;28;20613;-76
2021/09/25 15:36:17;;;;;;;14.13;7.00;;;25.10;99.90;;;;;;4994103;28;20668;-77
2021/09/25 15:38:42;;;;;;;7.07;6.27;;;25.00;99.90;;;;;;4994258;28;20178;-77
2021/09/25 15:41:08;;;;;;;6.90;5.30;;;24.90;99.90;;;;;;4993917;28;20466;-76
2021/09/25 15:43:35;;;;;;;6.27;4.87;;;24.80;99.90;;;;;;4994003;28;20418;-77
2021/09/25 15:46:01;;;;;;;6.87;6.00;;;24.70;99.90;;;;;;4993926;28;20283;-77
2021/09/25 15:48:27;;;;;;;6.07;5.10;;;24.60;99.90;;;;;;4994023;28;20862;-77
2021/09/25 15:50:52;;;;;;;6.33;5.40;;;24.70;99.90;;;;;;4992620;28;20203;-77
2021/09/25 15:53:18;;;;;;;5.53;4.93;;;24.60;99.90;;;;;;4993572;28;20180;-77
2021/09/25 15:55:44;;;;;;;6.53;4.93;;;24.60;99.90;;;;;;4993865;28;20180;-77
2021/09/25 15:58:10;;;;;;;6.77;5.50;;;24.50;99.90;;;;;;4993695;28;20175;-77
2021/09/25 16:00:35;;;;;;;9.13;6.07;;;24.50;99.90;;;;;;4993814;28;20207;-77
2021/09/25 16:03:01;;;;;;;4.83;4.43;;;24.40;99.90;;;;;;4993508;28;20641;-77
2021/09/25 16:05:26;;;;;;;5.43;4.67;;;24.40;99.90;;;;;;4993700;28;20174;-78
2021/09/25 16:07:52;;;;;;;6.40;5.03;;;24.20;99.90;;;;;;4993619;28;20185;-77
2021/09/25 16:10:19;;;;;;;5.37;4.87;;;24.20;99.90;;;;;;4993633;28;20172;-77
2021/09/25 16:12:45;;;;;;;5.70;4.40;;;24.00;99.90;;;;;;4993720;28;20462;-77
2021/09/25 16:15:11;;;;;;;5.97;4.70;;;24.00;99.90;;;;;;4993056;28;20894;-77
2021/09/25 16:17:36;;;;;;;5.43;4.10;;;23.90;99.90;;;;;;4993553;28;20211;-77
2021/09/25 16:20:07;;;;;;;8.57;7.67;;;23.90;99.90;;;;;;4993116;28;20415;-77
2021/09/25 16:22:33;;;;;;;7.40;6.43;;;23.80;99.90;;;;;;4993296;28;20431;-76
2021/09/25 16:24:58;;;;;;;4.80;4.40;;;23.80;99.90;;;;;;4992891;28;20783;-77
2021/09/25 16:27:25;;;;;;;6.20;4.93;;;23.70;99.90;;;;;;4993204;28;20238;-77
2021/09/25 16:29:52;;;;;;;8.63;4.73;;;23.70;99.90;;;;;;4991724;28;20187;-77
2021/09/25 16:32:17;;;;;;;6.30;4.27;;;23.60;99.90;;;;;;4992996;28;20465;-76
2021/09/25 16:34:43;;;;;;;4.77;4.47;;;23.60;99.90;;;;;;4992987;28;20502;-77
2021/09/25 16:37:09;;;;;;;4.53;4.23;;;23.60;99.90;;;;;;4993013;28;20211;-76
2021/09/25 16:39:34;;;;;;;5.97;5.40;;;23.60;99.90;;;;;;4993070;28;20545;-77
2021/09/25 16:42:00;;;;;;;9.60;8.73;;;23.60;99.90;;;;;;4992865;28;20427;-77
2021/09/25 16:44:26;;;;;;;15.17;13.77;;;23.50;99.90;;;;;;4992829;28;20199;-77
2021/09/25 16:46:51;;;;;;;5.90;5.20;;;23.40;99.90;;;;;;4991594;28;20206;-77
2021/09/25 16:49:17;;;;;;;5.47;5.07;;;23.30;99.90;;;;;;4992804;28;20172;-77
2021/09/25 16:51:42;;;;;;;5.90;4.97;;;23.20;99.90;;;;;;4992681;28;20590;-77
2021/09/25 16:54:08;;;;;;;6.10;5.47;;;23.10;99.90;;;;;;4992494;28;20179;-76
2021/09/25 16:56:35;;;;;;;7.03;4.77;;;23.00;99.90;;;;;;4992773;28;20205;-77
2021/09/25 16:59:03;;;;;;;5.63;5.20;;;22.90;99.90;;;;;;4992607;28;20680;-77
2021/09/25 17:01:28;;;;;;;6.07;5.47;;;22.70;99.90;;;;;;4992640;28;20438;-77
2021/09/25 17:03:54;;;;;;;5.50;5.00;;;22.60;99.90;;;;;;4992348;28;20767;-76
2021/09/25 17:06:19;;;;;;;6.70;5.60;;;22.40;99.90;;;;;;4992649;28;20608;-77
2021/09/25 17:08:45;;;;;;;8.77;5.80;;;22.20;99.90;;;;;;4991268;28;20183;-77
2021/09/25 17:11:10;;;;;;;6.87;5.43;;;22.00;99.90;;;;;;4992433;28;20222;-77
2021/09/25 17:13:36;;;;;;;9.17;5.43;;;21.90;99.90;;;;;;4974853;28;20558;-77
2021/09/25 17:16:02;;;;;;;6.33;5.43;;;21.70;99.90;;;;;;4992254;28;20201;-77
2021/09/25 17:18:27;;;;;;;5.57;5.07;;;21.60;99.90;;;;;;4992345;28;20184;-76